^^
Datos históricos de la estación: Murcia-Puente Tocinos
Diario Informe para Diciembre 9, 2019 Unidades:  Ambas    Ingés   Métrico
Diario Semanal Mensual Anual
  Máxima: Mínima: Promedio:
Temperatura: 68.7 °F /  20.4 °C 58.8 °F /  14.9 °C 62.8 °F /  17.1 °C
Punto de rocio: 48.7 °F /  9.3 °C 35.2 °F /  1.8 °C 43.5 °F /  6.4 °C
Humedad: 67% 32% 51%
Velocidad viento: 17.5mph /  28.2km/h - 7.4mph /  11.9km/h
Racha viento: 29mph /  46.7km/h - -
Viento- - OSO
Presión: 30.3 in /  1026.2 hPa 30.2 in /  1022.3 hPa -
Precipitación: 0 in /  0.0 mm    
 
 
Tabla de datos para Diciembre 9, 2019
Hora Temperatura Punto de rocio Presión Viento Velocidad viento Racha viento Humedad Intensidad lluvia(por hora) Nubes
00:04 60.3 °F /  15.7 °C 47.1 °F /  8.4 °C 30.2in /  1022.7hPa SO 7mph /  11.2km/h 14mph /  22.5km/h 62% 0in /  0.0mm
00:09 60.3 °F /  15.7 °C 47.1 °F /  8.4 °C 30.2in /  1022.7hPa SSO 7.6mph /  12.2km/h 13.8mph /  22.2km/h 62% 0in /  0.0mm
00:14 59.7 °F /  15.4 °C 46.8 °F /  8.2 °C 30.2in /  1022.7hPa SSO 6.9mph /  11.1km/h 14mph /  22.5km/h 62.2% 0in /  0.0mm
00:19 59.4 °F /  15.2 °C 47.1 °F /  8.4 °C 30.2in /  1022.7hPa SO 6.4mph /  10.3km/h 10.4mph /  16.7km/h 63.6% 0in /  0.0mm
00:24 59.5 °F /  15.3 °C 47.3 °F /  8.5 °C 30.2in /  1022.7hPa SO 5.4mph /  8.7km/h 10.4mph /  16.7km/h 64% 0in /  0.0mm
00:29 59.5 °F /  15.3 °C 47.3 °F /  8.5 °C 30.2in /  1022.7hPa OSO 4.7mph /  7.6km/h 15mph /  24.1km/h 64% 0in /  0.0mm
00:34 59.7 °F /  15.4 °C 47.5 °F /  8.6 °C 30.2in /  1022.7hPa OSO 6mph /  9.6km/h 15mph /  24.1km/h 64% 0in /  0.0mm
00:39 59.7 °F /  15.4 °C 47.5 °F /  8.6 °C 30.2in /  1022.7hPa OSO 6.9mph /  11.1km/h 17.5mph /  28.2km/h 64% 0in /  0.0mm
00:44 59.9 °F /  15.5 °C 47.5 °F /  8.6 °C 30.2in /  1022.5hPa OSO 7.3mph /  11.7km/h 17mph /  27.4km/h 63.8% 0in /  0.0mm
00:49 60.1 °F /  15.6 °C 47.5 °F /  8.6 °C 30.2in /  1022.5hPa OSO 7.6mph /  12.2km/h 16mph /  25.7km/h 63% 0in /  0.0mm
00:54 60.1 °F /  15.6 °C 47.5 °F /  8.6 °C 30.2in /  1022.6hPa OSO 7.6mph /  12.2km/h 15.2mph /  24.5km/h 63% 0in /  0.0mm
00:59 60.1 °F /  15.6 °C 47.5 °F /  8.6 °C 30.2in /  1022.6hPa OSO 7.6mph /  12.2km/h 15mph /  24.1km/h 63% 0in /  0.0mm
01:04 60.3 °F /  15.7 °C 47.7 °F /  8.7 °C 30.2in /  1022.6hPa SO 6.9mph /  11.1km/h 14mph /  22.5km/h 63% 0in /  0.0mm
01:09 60.3 °F /  15.7 °C 47.7 °F /  8.7 °C 30.2in /  1022.6hPa Sur 6.4mph /  10.3km/h 10mph /  16.1km/h 63% 0in /  0.0mm
01:14 59.9 °F /  15.5 °C 47.7 °F /  8.7 °C 30.2in /  1022.6hPa Sur 5.8mph /  9.4km/h 8mph /  12.9km/h 63.9% 0in /  0.0mm
01:19 59.7 °F /  15.4 °C 47.5 °F /  8.6 °C 30.2in /  1022.6hPa SSO 5.4mph /  8.7km/h 7.4mph /  11.9km/h 64% 0in /  0.0mm
01:24 59.7 °F /  15.4 °C 47.5 °F /  8.6 °C 30.2in /  1022.6hPa Sur 4.8mph /  7.7km/h 11.5mph /  18.5km/h 64% 0in /  0.0mm
01:29 59.5 °F /  15.3 °C 47.8 °F /  8.8 °C 30.2in /  1022.6hPa Sur 4.3mph /  6.9km/h 12mph /  19.3km/h 65% 0in /  0.0mm
01:34 59.5 °F /  15.3 °C 47.7 °F /  8.7 °C 30.2in /  1022.6hPa Sur 5.4mph /  8.7km/h 12.7mph /  20.4km/h 64.9% 0in /  0.0mm
01:39 59.9 °F /  15.5 °C 47.5 °F /  8.6 °C 30.2in /  1022.6hPa SSE 6.2mph /  10km/h 13mph /  20.9km/h 63.8% 0in /  0.0mm
01:44 60.1 °F /  15.6 °C 47.5 °F /  8.6 °C 30.2in /  1022.6hPa SSO 6.9mph /  11.1km/h 12mph /  19.3km/h 63% 0in /  0.0mm
01:49 60.3 °F /  15.7 °C 47.5 °F /  8.6 °C 30.2in /  1022.6hPa OSO 7.4mph /  11.9km/h 10.7mph /  17.2km/h 62.6% 0in /  0.0mm
01:54 60.3 °F /  15.7 °C 47.5 °F /  8.6 °C 30.2in /  1022.6hPa Oeste 6.3mph /  10.1km/h 11mph /  17.7km/h 62.8% 0in /  0.0mm
01:59 60.3 °F /  15.7 °C 47.7 °F /  8.7 °C 30.2in /  1022.5hPa ONO 5.4mph /  8.7km/h 12.3mph /  19.8km/h 63% 0in /  0.0mm
02:04 60.3 °F /  15.7 °C 47.5 °F /  8.6 °C 30.2in /  1022.5hPa OSO 5.3mph /  8.5km/h 14mph /  22.5km/h 62.7% 0in /  0.0mm
02:09 60.4 °F /  15.8 °C 47.3 °F /  8.5 °C 30.2in /  1022.6hPa OSO 5.2mph /  8.4km/h 21.9mph /  35.2km/h 62% 0in /  0.0mm
02:14 60.8 °F /  16 °C 47.3 °F /  8.5 °C 30.2in /  1022.6hPa OSO 6.8mph /  10.9km/h 22mph /  35.4km/h 61% 0in /  0.0mm
02:19 60.6 °F /  15.9 °C 47.3 °F /  8.5 °C 30.2in /  1022.6hPa OSO 8.1mph /  13km/h 14mph /  22.5km/h 61.1% 0in /  0.0mm
02:24 60.6 °F /  15.9 °C 47.5 °F /  8.6 °C 30.2in /  1022.6hPa OSO 7.1mph /  11.5km/h 12.7mph /  20.4km/h 62% 0in /  0.0mm
02:29 60.6 °F /  15.9 °C 47.5 °F /  8.6 °C 30.2in /  1022.4hPa OSO 6.4mph /  10.3km/h 13mph /  20.9km/h 62% 0in /  0.0mm
02:34 60.6 °F /  15.9 °C 47.5 °F /  8.6 °C 30.2in /  1022.4hPa OSO 5.8mph /  9.4km/h 12.7mph /  20.4km/h 62% 0in /  0.0mm
02:39 60.6 °F /  15.9 °C 47.5 °F /  8.6 °C 30.2in /  1022.4hPa OSO 5.4mph /  8.7km/h 16.3mph /  26.2km/h 62% 0in /  0.0mm
02:44 60.6 °F /  15.9 °C 47.5 °F /  8.6 °C 30.2in /  1022.4hPa OSO 6.6mph /  10.7km/h 16mph /  25.7km/h 62% 0in /  0.0mm
02:49 60.6 °F /  15.9 °C 47.5 °F /  8.6 °C 30.2in /  1022.4hPa SO 7.6mph /  12.2km/h 12mph /  19.3km/h 62% 0in /  0.0mm
02:54 60.4 °F /  15.8 °C 47.5 °F /  8.6 °C 30.2in /  1022.6hPa SSO 6mph /  9.6km/h 12mph /  19.3km/h 62% 0in /  0.0mm
02:59 60.4 °F /  15.8 °C 47.5 °F /  8.6 °C 30.2in /  1022.6hPa Sur 4.7mph /  7.6km/h 8.1mph /  13km/h 62% 0in /  0.0mm
03:04 60.3 °F /  15.7 °C 47.3 °F /  8.5 °C 30.2in /  1022.6hPa Sur 4mph /  6.5km/h 8mph /  12.9km/h 62.2% 0in /  0.0mm
03:09 60.3 °F /  15.7 °C 47.7 °F /  8.7 °C 30.2in /  1022.6hPa SSO 3.6mph /  5.8km/h 6.2mph /  10km/h 63% 0in /  0.0mm
03:14 60.3 °F /  15.7 °C 47.7 °F /  8.7 °C 30.2in /  1022.5hPa SSO 3.6mph /  5.8km/h 9.2mph /  14.8km/h 63% 0in /  0.0mm
03:19 60.4 °F /  15.8 °C 47.8 °F /  8.8 °C 30.2in /  1022.5hPa OSO 3.6mph /  5.8km/h 18.4mph /  29.6km/h 63% 0in /  0.0mm
03:24 61 °F /  16.1 °C 48 °F /  8.9 °C 30.2in /  1022.5hPa OSO 6.3mph /  10.1km/h 18.4mph /  29.6km/h 62.3% 0in /  0.0mm
03:29 61.3 °F /  16.3 °C 48 °F /  8.9 °C 30.2in /  1022.3hPa OSO 8.5mph /  13.7km/h 21.9mph /  35.2km/h 61.4% 0in /  0.0mm
03:34 61.7 °F /  16.5 °C 48.2 °F /  9 °C 30.2in /  1022.3hPa OSO 9.2mph /  14.8km/h 22mph /  35.4km/h 61% 0in /  0.0mm
03:39 62.1 °F /  16.7 °C 48 °F /  8.9 °C 30.2in /  1022.5hPa SO 9.7mph /  15.6km/h 17mph /  27.4km/h 60.2% 0in /  0.0mm
03:44 61.9 °F /  16.6 °C 47.8 °F /  8.8 °C 30.2in /  1022.5hPa SO 8.4mph /  13.5km/h 15.2mph /  24.5km/h 60% 0in /  0.0mm
03:49 61.9 °F /  16.6 °C 47.8 °F /  8.8 °C 30.2in /  1022.5hPa OSO 7.4mph /  11.9km/h 15mph /  24.1km/h 60% 0in /  0.0mm
03:54 61.9 °F /  16.6 °C 47.8 °F /  8.8 °C 30.2in /  1022.5hPa OSO 7.4mph /  11.9km/h 12.7mph /  20.4km/h 60% 0in /  0.0mm
03:59 61.7 °F /  16.5 °C 47.7 °F /  8.7 °C 30.2in /  1022.3hPa OSO 7.4mph /  11.9km/h 14mph /  22.5km/h 60% 0in /  0.0mm
04:04 61.5 °F /  16.4 °C 47.7 °F /  8.7 °C 30.2in /  1022.3hPa Oeste 7.1mph /  11.4km/h 14mph /  22.5km/h 60% 0in /  0.0mm
04:09 61.3 °F /  16.3 °C 47.7 °F /  8.7 °C 30.2in /  1022.5hPa Oeste 6.9mph /  11.1km/h 16.8mph /  27km/h 60.4% 0in /  0.0mm
04:14 61.3 °F /  16.3 °C 47.8 °F /  8.8 °C 30.2in /  1022.5hPa Oeste 6.6mph /  10.7km/h 17.3mph /  27.8km/h 61% 0in /  0.0mm
04:19 61.5 °F /  16.4 °C 47.8 °F /  8.8 °C 30.2in /  1022.5hPa Oeste 6.4mph /  10.3km/h 15mph /  24.1km/h 61% 0in /  0.0mm
04:24 61.3 °F /  16.3 °C 47.8 °F /  8.8 °C 30.2in /  1022.5hPa OSO 6.7mph /  10.8km/h 12mph /  19.3km/h 61% 0in /  0.0mm
04:29 61.2 °F /  16.2 °C 48 °F /  8.9 °C 30.2in /  1022.4hPa SSO 6.9mph /  11.1km/h 9mph /  14.5km/h 61.9% 0in /  0.0mm
04:34 60.6 °F /  15.9 °C 47.7 °F /  8.7 °C 30.2in /  1022.4hPa Sur 4.8mph /  7.7km/h 5.9mph /  9.5km/h 62% 0in /  0.0mm
04:39 60.4 °F /  15.8 °C 47.3 °F /  8.5 °C 30.2in /  1022.4hPa Sur 3.1mph /  5km/h 6mph /  9.7km/h 62% 0in /  0.0mm
04:44 60.3 °F /  15.7 °C 47.1 °F /  8.4 °C 30.2in /  1022.4hPa SSE 3.1mph /  5km/h 5mph /  8km/h 62% 0in /  0.0mm
04:49 60.1 °F /  15.6 °C 46.9 °F /  8.3 °C 30.2in /  1022.4hPa SSE 3.1mph /  5km/h 4.6mph /  7.4km/h 62% 0in /  0.0mm
04:54 59.9 °F /  15.5 °C 46.8 °F /  8.2 °C 30.2in /  1022.4hPa Sur 2.7mph /  4.4km/h 5mph /  8km/h 62% 0in /  0.0mm
04:59 59.9 °F /  15.5 °C 46.8 °F /  8.2 °C 30.2in /  1022.4hPa ONO 2.4mph /  3.9km/h 5mph /  8km/h 62% 0in /  0.0mm
05:04 59.7 °F /  15.4 °C 47.1 °F /  8.4 °C 30.2in /  1022.4hPa NO 2.4mph /  3.9km/h 6.9mph /  11.1km/h 62.9% 0in /  0.0mm
05:09 59.4 °F /  15.2 °C 47.3 °F /  8.5 °C 30.2in /  1022.5hPa Este 2.4mph /  3.9km/h 7mph /  11.3km/h 64.3% 0in /  0.0mm
05:14 59 °F /  15 °C 47.3 °F /  8.5 °C 30.2in /  1022.5hPa SSO 2.8mph /  4.5km/h 9.2mph /  14.8km/h 65% 0in /  0.0mm
05:19 59.2 °F /  15.1 °C 47.5 °F /  8.6 °C 30.2in /  1022.5hPa NE 3.1mph /  5km/h 9mph /  14.5km/h 65% 0in /  0.0mm
05:24 59.4 °F /  15.2 °C 47.3 °F /  8.5 °C 30.2in /  1022.7hPa ESE 3.4mph /  5.4km/h 6mph /  9.7km/h 64.3% 0in /  0.0mm
05:29 59.4 °F /  15.2 °C 47.5 °F /  8.6 °C 30.2in /  1022.7hPa Este 3.6mph /  5.8km/h 7.6mph /  12.2km/h 65% 0in /  0.0mm
05:34 59.4 °F /  15.2 °C 47.5 °F /  8.6 °C 30.2in /  1022.7hPa Este 3.2mph /  5.1km/h 8mph /  12.9km/h 64.4% 0in /  0.0mm
05:39 59.5 °F /  15.3 °C 47.5 °F /  8.6 °C 30.2in /  1023.0hPa ESE 2.9mph /  4.7km/h 5.9mph /  9.5km/h 64% 0in /  0.0mm
05:44 59.9 °F /  15.5 °C 47.7 °F /  8.7 °C 30.2in /  1023.0hPa Oeste 2.9mph /  4.7km/h 8.7mph /  14km/h 64% 0in /  0.0mm
05:49 60.1 °F /  15.6 °C 48 °F /  8.9 °C 30.2in /  1023.0hPa Oeste 2.9mph /  4.7km/h 14mph /  22.5km/h 64% 0in /  0.0mm
05:54 60.4 °F /  15.8 °C 48.2 °F /  9 °C 30.2in /  1023.2hPa Oeste 5.3mph /  8.6km/h 21.3mph /  34.3km/h 64.1% 0in /  0.0mm
05:59 60.8 °F /  16 °C 48.6 °F /  9.2 °C 30.2in /  1023.2hPa Oeste 7.4mph /  11.9km/h 22.5mph /  36.2km/h 64% 0in /  0.0mm
06:04 60.6 °F /  15.9 °C 48.4 °F /  9.1 °C 30.2in /  1023.2hPa Oeste 9.3mph /  15km/h 23mph /  37km/h 64% 0in /  0.0mm
06:09 60.4 °F /  15.8 °C 48.4 °F /  9.1 °C 30.2in /  1023.2hPa Oeste 10.7mph /  17.2km/h 28.4mph /  45.7km/h 64.2% 0in /  0.0mm
06:14 60.4 °F /  15.8 °C 48.6 °F /  9.2 °C 30.2in /  1023.2hPa Oeste 11.9mph /  19.2km/h 29mph /  46.7km/h 65% 0in /  0.0mm
06:19 60.1 °F /  15.6 °C 48.6 °F /  9.2 °C 30.2in /  1023.2hPa Oeste 13mph /  20.9km/h 29mph /  46.7km/h 65.4% 0in /  0.0mm
06:24 60.1 °F /  15.6 °C 48.7 °F /  9.3 °C 30.2in /  1023.4hPa Oeste 13.4mph /  21.6km/h 25.3mph /  40.7km/h 66% 0in /  0.0mm
06:29 60.1 °F /  15.6 °C 48.7 °F /  9.3 °C 30.2in /  1023.4hPa Oeste 13.7mph /  22.1km/h 25mph /  40.2km/h 66% 0in /  0.0mm
06:34 59.9 °F /  15.5 °C 48.4 °F /  9.1 °C 30.2in /  1023.4hPa Oeste 13.9mph /  22.3km/h 25.3mph /  40.7km/h 65.7% 0in /  0.0mm
06:39 59.9 °F /  15.5 °C 48.4 °F /  9.1 °C 30.2in /  1023.4hPa Oeste 14mph /  22.5km/h 25mph /  40.2km/h 65.6% 0in /  0.0mm
06:44 59.7 °F /  15.4 °C 48.4 °F /  9.1 °C 30.2in /  1023.4hPa Oeste 13.9mph /  22.3km/h 23mph /  37km/h 66% 0in /  0.0mm
06:49 59.7 °F /  15.4 °C 48.4 °F /  9.1 °C 30.2in /  1023.4hPa Oeste 13.7mph /  22.1km/h 23mph /  37km/h 66% 0in /  0.0mm
06:54 59.7 °F /  15.4 °C 48.4 °F /  9.1 °C 30.2in /  1023.5hPa Oeste 13mph /  21km/h 20mph /  32.2km/h 66% 0in /  0.0mm
06:59 59.7 °F /  15.4 °C 48.2 °F /  9 °C 30.2in /  1023.5hPa Oeste 12.5mph /  20.1km/h 18.4mph /  29.6km/h 65.8% 0in /  0.0mm
07:04 59.7 °F /  15.4 °C 47.8 °F /  8.8 °C 30.2in /  1023.5hPa SO 10.3mph /  16.5km/h 18mph /  29km/h 65% 0in /  0.0mm
07:09 59.7 °F /  15.4 °C 47.8 °F /  8.8 °C 30.2in /  1024.0hPa Sur 8.7mph /  14km/h 16mph /  25.7km/h 65% 0in /  0.0mm
07:14 59.7 °F /  15.4 °C 47.8 °F /  8.8 °C 30.2in /  1024.0hPa SSO 6.7mph /  10.8km/h 10.7mph /  17.2km/h 65% 0in /  0.0mm
07:19 59.5 °F /  15.3 °C 48 °F /  8.9 °C 30.2in /  1024.0hPa SSE 5.2mph /  8.4km/h 11mph /  17.7km/h 65.4% 0in /  0.0mm
07:24 59.2 °F /  15.1 °C 47.8 °F /  8.8 °C 30.2in /  1024.1hPa Sur 5.6mph /  9km/h 12.7mph /  20.4km/h 66% 0in /  0.0mm
07:29 59 °F /  15 °C 48 °F /  8.9 °C 30.2in /  1024.1hPa SSE 5.9mph /  9.5km/h 13mph /  20.9km/h 66.8% 0in /  0.0mm
07:34 58.8 °F /  14.9 °C 48 °F /  8.9 °C 30.2in /  1024.1hPa Sur 6.2mph /  10km/h 16.8mph /  27km/h 67% 0in /  0.0mm
07:39 58.8 °F /  14.9 °C 47.8 °F /  8.8 °C 30.2in /  1024.2hPa OSO 6.4mph /  10.3km/h 17.5mph /  28.2km/h 66.6% 0in /  0.0mm
07:44 59.2 °F /  15.1 °C 47.8 °F /  8.8 °C 30.2in /  1024.2hPa OSO 6.4mph /  10.3km/h 17mph /  27.4km/h 66% 0in /  0.0mm
07:49 59.2 °F /  15.1 °C 47.8 °F /  8.8 °C 30.2in /  1024.2hPa OSO 6.4mph /  10.3km/h 15.2mph /  24.5km/h 66% 0in /  0.0mm
07:54 59.2 °F /  15.1 °C 47.8 °F /  8.8 °C 30.2in /  1024.2hPa OSO 7mph /  11.2km/h 15mph /  24.1km/h 66% 0in /  0.0mm
07:59 59.2 °F /  15.1 °C 47.7 °F /  8.7 °C 30.2in /  1024.2hPa OSO 7.4mph /  11.9km/h 20.7mph /  33.3km/h 65.8% 0in /  0.0mm
08:04 59.4 °F /  15.2 °C 47.7 °F /  8.7 °C 30.2in /  1024.2hPa SO 8mph /  12.9km/h 21mph /  33.8km/h 65% 0in /  0.0mm
08:09 59.4 °F /  15.2 °C 47.7 °F /  8.7 °C 30.2in /  1024.2hPa SO 8.5mph /  13.7km/h 20.7mph /  33.3km/h 65% 0in /  0.0mm
08:14 59.4 °F /  15.2 °C 47.7 °F /  8.7 °C 30.2in /  1024.2hPa SO 8.6mph /  13.9km/h 21mph /  33.8km/h 65% 0in /  0.0mm
08:19 59.4 °F /  15.2 °C 47.5 °F /  8.6 °C 30.2in /  1024.2hPa OSO 8.7mph /  14km/h 16.1mph /  25.9km/h 65% 0in /  0.0mm
08:24 59.2 °F /  15.1 °C 47.5 °F /  8.6 °C 30.2in /  1024.2hPa OSO 8.4mph /  13.5km/h 16.1mph /  25.9km/h 65% 0in /  0.0mm
08:29 59 °F /  15 °C 47.7 °F /  8.7 °C 30.2in /  1024.2hPa OSO 8.1mph /  13km/h 16mph /  25.7km/h 65.8% 0in /  0.0mm
08:34 58.8 °F /  14.9 °C 47.5 °F /  8.6 °C 30.2in /  1024.2hPa OSO 7.4mph /  11.9km/h 15mph /  24.1km/h 66% 0in /  0.0mm
08:39 59 °F /  15 °C 47.3 °F /  8.5 °C 30.3in /  1024.3hPa OSO 6.9mph /  11.1km/h 17.5mph /  28.2km/h 65.3% 0in /  0.0mm
08:44 59 °F /  15 °C 47.3 °F /  8.5 °C 30.3in /  1024.3hPa OSO 8.1mph /  13.1km/h 17.3mph /  27.8km/h 65% 0in /  0.0mm
08:49 59.2 °F /  15.1 °C 47.5 °F /  8.6 °C 30.3in /  1024.3hPa Oeste 9.2mph /  14.8km/h 19.6mph /  31.5km/h 65% 0in /  0.0mm
08:54 59.4 °F /  15.2 °C 47.3 °F /  8.5 °C 30.3in /  1024.4hPa Oeste 10.1mph /  16.2km/h 20mph /  32.2km/h 64.3% 0in /  0.0mm
08:59 59.4 °F /  15.2 °C 47.1 °F /  8.4 °C 30.3in /  1024.4hPa Oeste 10.7mph /  17.2km/h 20.8mph /  33.5km/h 64% 0in /  0.0mm
09:04 59.4 °F /  15.2 °C 47.1 °F /  8.4 °C 30.3in /  1024.4hPa Oeste 11.7mph /  18.9km/h 23mph /  37km/h 64% 0in /  0.0mm
09:09 59.2 °F /  15.1 °C 46.9 °F /  8.3 °C 30.3in /  1024.7hPa Oeste 12.5mph /  20.1km/h 23mph /  37km/h 64% 0in /  0.0mm
09:14 59 °F /  15 °C 46.8 °F /  8.2 °C 30.3in /  1024.7hPa Oeste 12.1mph /  19.5km/h 22.5mph /  36.2km/h 64% 0in /  0.0mm
09:19 58.8 °F /  14.9 °C 46.8 °F /  8.2 °C 30.3in /  1024.7hPa Oeste 11.8mph /  19km/h 23mph /  37km/h 64% 0in /  0.0mm
09:24 58.8 °F /  14.9 °C 46.8 °F /  8.2 °C 30.3in /  1024.7hPa Oeste 12.2mph /  19.6km/h 23mph /  37km/h 64% 0in /  0.0mm
09:29 59.2 °F /  15.1 °C 46.6 °F /  8.1 °C 30.3in /  1024.6hPa Oeste 12.5mph /  20.1km/h 24.2mph /  38.9km/h 63% 0in /  0.0mm
09:34 59.2 °F /  15.1 °C 46.6 °F /  8.1 °C 30.3in /  1024.6hPa Oeste 13.7mph /  22.1km/h 27.3mph /  43.9km/h 62.9% 0in /  0.0mm
09:39 59.4 °F /  15.2 °C 46.4 °F /  8 °C 30.3in /  1024.8hPa Oeste 14.7mph /  23.7km/h 28mph /  45.1km/h 62% 0in /  0.0mm
09:44 59.4 °F /  15.2 °C 46.8 °F /  8.2 °C 30.3in /  1024.8hPa Oeste 14mph /  22.6km/h 28mph /  45.1km/h 63% 0in /  0.0mm
09:49 59.4 °F /  15.2 °C 46.8 °F /  8.2 °C 30.3in /  1024.8hPa Oeste 13.5mph /  21.7km/h 18mph /  29km/h 63% 0in /  0.0mm
09:54 59.4 °F /  15.2 °C 46.8 °F /  8.2 °C 30.3in /  1025.2hPa Oeste 10.8mph /  17.4km/h 18.5mph /  29.8km/h 63% 0in /  0.0mm
09:59 59.4 °F /  15.2 °C 46.8 °F /  8.2 °C 30.3in /  1025.2hPa Oeste 8.7mph /  14km/h 19mph /  30.6km/h 63% 0in /  0.0mm
10:04 59.4 °F /  15.2 °C 46.6 °F /  8.1 °C 30.3in /  1025.2hPa Oeste 8.7mph /  14km/h 20.7mph /  33.3km/h 62.4% 0in /  0.0mm
10:09 59.5 °F /  15.3 °C 46.6 °F /  8.1 °C 30.3in /  1025.4hPa Oeste 8.7mph /  14km/h 21mph /  33.8km/h 62% 0in /  0.0mm
10:14 59.7 °F /  15.4 °C 46.6 °F /  8.1 °C 30.3in /  1025.4hPa Oeste 9.9mph /  15.9km/h 20.7mph /  33.3km/h 61.6% 0in /  0.0mm
10:19 60.1 °F /  15.6 °C 46.6 °F /  8.1 °C 30.3in /  1025.4hPa Oeste 10.7mph /  17.2km/h 21mph /  33.8km/h 61% 0in /  0.0mm
10:24 60.3 °F /  15.7 °C 46.8 °F /  8.2 °C 30.3in /  1025.7hPa OSO 10.1mph /  16.3km/h 20mph /  32.2km/h 61% 0in /  0.0mm
10:29 60.4 °F /  15.8 °C 46.6 °F /  8.1 °C 30.3in /  1025.7hPa Oeste 9.7mph /  15.6km/h 16.1mph /  25.9km/h 60.1% 0in /  0.0mm
10:34 60.8 °F /  16 °C 46.2 °F /  7.9 °C 30.3in /  1025.7hPa Oeste 9.7mph /  15.6km/h 20.8mph /  33.5km/h 59% 0in /  0.0mm
10:39 61 °F /  16.1 °C 46.2 °F /  7.9 °C 30.3in /  1025.7hPa OSO 9.7mph /  15.6km/h 21mph /  33.8km/h 58.3% 0in /  0.0mm
10:44 61.3 °F /  16.3 °C 46.4 °F /  8 °C 30.3in /  1025.7hPa OSO 9.1mph /  14.7km/h 18mph /  29km/h 58% 0in /  0.0mm
10:49 61.3 °F /  16.3 °C 46.4 °F /  8 °C 30.3in /  1025.7hPa OSO 8.7mph /  14km/h 15.2mph /  24.5km/h 58% 0in /  0.0mm
10:54 61.5 °F /  16.4 °C 46.4 °F /  8 °C 30.3in /  1026.1hPa Oeste 7.7mph /  12.4km/h 15.2mph /  24.5km/h 57.8% 0in /  0.0mm
10:59 61.5 °F /  16.4 °C 46 °F /  7.8 °C 30.3in /  1026.1hPa OSO 6.9mph /  11.1km/h 17.3mph /  27.8km/h 56.6% 0in /  0.0mm
11:04 61.7 °F /  16.5 °C 45.7 °F /  7.6 °C 30.3in /  1026.1hPa OSO 8mph /  12.8km/h 17mph /  27.4km/h 55.8% 0in /  0.0mm
11:09 62.1 °F /  16.7 °C 45.7 °F /  7.6 °C 30.3in /  1026.1hPa SO 8.7mph /  14km/h 14mph /  22.5km/h 55% 0in /  0.0mm
11:14 62.1 °F /  16.7 °C 45.7 °F /  7.6 °C 30.3in /  1026.0hPa OSO 8.3mph /  13.4km/h 14.5mph /  23.3km/h 55% 0in /  0.0mm
11:19 62.1 °F /  16.7 °C 45.7 °F /  7.6 °C 30.3in /  1026.0hPa OSO 8.1mph /  13km/h 16.1mph /  25.9km/h 55% 0in /  0.0mm
11:24 62.1 °F /  16.7 °C 46 °F /  7.8 °C 30.3in /  1026.0hPa Oeste 8.1mph /  13km/h 16mph /  25.7km/h 55.8% 0in /  0.0mm
11:29 62.1 °F /  16.7 °C 45.9 °F /  7.7 °C 30.3in /  1026.0hPa OSO 8.1mph /  13km/h 14mph /  22.5km/h 55.4% 0in /  0.0mm
11:34 62.2 °F /  16.8 °C 45.7 °F /  7.6 °C 30.3in /  1026.0hPa Oeste 7.8mph /  12.6km/h 14mph /  22.5km/h 54.8% 0in /  0.0mm
11:39 62.2 °F /  16.8 °C 45.9 °F /  7.7 °C 30.3in /  1026.0hPa Oeste 7.6mph /  12.2km/h 14mph /  22.5km/h 54.8% 0in /  0.0mm
11:44 62.4 °F /  16.9 °C 45.3 °F /  7.4 °C 30.3in /  1026.0hPa SO 6.6mph /  10.7km/h 17.3mph /  27.8km/h 53.5% 0in /  0.0mm
11:49 62.8 °F /  17.1 °C 45.3 °F /  7.4 °C 30.3in /  1026.0hPa OSO 5.9mph /  9.5km/h 17mph /  27.4km/h 53% 0in /  0.0mm
11:54 63 °F /  17.2 °C 45.7 °F /  7.6 °C 30.3in /  1026.0hPa OSO 6.2mph /  9.9km/h 12mph /  19.3km/h 53% 0in /  0.0mm
11:59 63.3 °F /  17.4 °C 45.1 °F /  7.3 °C 30.3in /  1025.9hPa OSO 6.4mph /  10.3km/h 13mph /  20.9km/h 51.6% 0in /  0.0mm
12:04 63.5 °F /  17.5 °C 44.6 °F /  7 °C 30.3in /  1025.9hPa ONO 6.3mph /  10.1km/h 13.8mph /  22.2km/h 50.1% 0in /  0.0mm
12:09 63.7 °F /  17.6 °C 44.2 °F /  6.8 °C 30.3in /  1025.9hPa Oeste 6.2mph /  10km/h 15.2mph /  24.5km/h 49.1% 0in /  0.0mm
12:14 63.9 °F /  17.7 °C 44.1 °F /  6.7 °C 30.3in /  1025.7hPa Oeste 7mph /  11.3km/h 15mph /  24.1km/h 48.5% 0in /  0.0mm
12:19 64.2 °F /  17.9 °C 43 °F /  6.1 °C 30.3in /  1025.7hPa Oeste 7.6mph /  12.2km/h 20.7mph /  33.3km/h 46.1% 0in /  0.0mm
12:24 64.4 °F /  18 °C 42.4 °F /  5.8 °C 30.3in /  1025.7hPa Oeste 8.9mph /  14.4km/h 21mph /  33.8km/h 44.6% 0in /  0.0mm
12:29 64.6 °F /  18.1 °C 42.1 °F /  5.6 °C 30.3in /  1025.5hPa Oeste 10mph /  16.1km/h 22.3mph /  35.9km/h 43.8% 0in /  0.0mm
12:34 64.6 °F /  18.1 °C 41.7 °F /  5.4 °C 30.3in /  1025.5hPa Oeste 10.1mph /  16.3km/h 22mph /  35.4km/h 43% 0in /  0.0mm
12:39 64.8 °F /  18.2 °C 41.7 °F /  5.4 °C 30.3in /  1025.5hPa Oeste 10.2mph /  16.4km/h 21.9mph /  35.2km/h 43% 0in /  0.0mm
12:44 64.9 °F /  18.3 °C 42.1 °F /  5.6 °C 30.3in /  1025.1hPa Oeste 11.4mph /  18.4km/h 22mph /  35.4km/h 43.4% 0in /  0.0mm
12:49 65.1 °F /  18.4 °C 41.4 °F /  5.2 °C 30.3in /  1025.1hPa OSO 12.3mph /  19.8km/h 24.6mph /  39.6km/h 41.8% 0in /  0.0mm
12:54 65.1 °F /  18.4 °C 41.2 °F /  5.1 °C 30.3in /  1025.1hPa OSO 12.3mph /  19.8km/h 25mph /  40.2km/h 41.7% 0in /  0.0mm
12:59 65.3 °F /  18.5 °C 41.7 °F /  5.4 °C 30.3in /  1024.9hPa OSO 12.3mph /  19.8km/h 19mph /  30.6km/h 42.1% 0in /  0.0mm
13:04 65.5 °F /  18.6 °C 41.9 °F /  5.5 °C 30.3in /  1024.9hPa OSO 11.4mph /  18.3km/h 22.3mph /  35.9km/h 42% 0in /  0.0mm
13:09 65.7 °F /  18.7 °C 41.4 °F /  5.2 °C 30.3in /  1024.9hPa OSO 10.7mph /  17.2km/h 22mph /  35.4km/h 41% 0in /  0.0mm
13:14 65.8 °F /  18.8 °C 41.5 °F /  5.3 °C 30.3in /  1024.4hPa Oeste 11.6mph /  18.6km/h 24.2mph /  38.9km/h 40.9% 0in /  0.0mm
13:19 65.8 °F /  18.8 °C 41.2 °F /  5.1 °C 30.3in /  1024.4hPa Oeste 12.3mph /  19.8km/h 25.3mph /  40.7km/h 40.4% 0in /  0.0mm
13:24 66 °F /  18.9 °C 40.5 °F /  4.7 °C 30.3in /  1024.4hPa ONO 13.9mph /  22.4km/h 25mph /  40.2km/h 39.4% 0in /  0.0mm
13:29 66 °F /  18.9 °C 39.9 °F /  4.4 °C 30.2in /  1024.1hPa ONO 15.2mph /  24.5km/h 28.8mph /  46.3km/h 38.5% 0in /  0.0mm
13:34 66 °F /  18.9 °C 40.8 °F /  4.9 °C 30.2in /  1024.1hPa ONO 15.6mph /  25.1km/h 29mph /  46.7km/h 39.9% 0in /  0.0mm
13:39 66 °F /  18.9 °C 41 °F /  5 °C 30.2in /  1024.1hPa ONO 15.9mph /  25.6km/h 20mph /  32.2km/h 39.9% 0in /  0.0mm
13:44 66 °F /  18.9 °C 41 °F /  5 °C 30.2in /  1024.1hPa ONO 12.6mph /  20.2km/h 17mph /  27.4km/h 40% 0in /  0.0mm
13:49 66.4 °F /  19.1 °C 40.8 °F /  4.9 °C 30.2in /  1024.1hPa Oeste 10mph /  16.1km/h 16.1mph /  25.9km/h 39.1% 0in /  0.0mm
13:54 66.6 °F /  19.2 °C 41.2 °F /  5.1 °C 30.2in /  1024.1hPa ONO 8.7mph /  14km/h 16mph /  25.7km/h 39.6% 0in /  0.0mm
13:59 66.7 °F /  19.3 °C 41.2 °F /  5.1 °C 30.2in /  1023.9hPa Oeste 7.6mph /  12.2km/h 17.3mph /  27.8km/h 39.1% 0in /  0.0mm
14:04 66.9 °F /  19.4 °C 41.2 °F /  5.1 °C 30.2in /  1023.9hPa Oeste 8.3mph /  13.3km/h 17mph /  27.4km/h 39.1% 0in /  0.0mm
14:09 66.9 °F /  19.4 °C 41.2 °F /  5.1 °C 30.2in /  1023.9hPa OSO 8.7mph /  14km/h 14mph /  22.5km/h 39.2% 0in /  0.0mm
14:14 66.9 °F /  19.4 °C 41.5 °F /  5.3 °C 30.2in /  1023.7hPa OSO 8.4mph /  13.5km/h 13.8mph /  22.2km/h 39.5% 0in /  0.0mm
14:19 66.9 °F /  19.4 °C 41.7 °F /  5.4 °C 30.2in /  1023.7hPa OSO 8.1mph /  13km/h 14mph /  22.5km/h 39.9% 0in /  0.0mm
14:24 66.9 °F /  19.4 °C 42.1 °F /  5.6 °C 30.2in /  1023.7hPa OSO 7.1mph /  11.5km/h 12mph /  19.3km/h 40.2% 0in /  0.0mm
14:29 67.1 °F /  19.5 °C 42.1 °F /  5.6 °C 30.2in /  1023.7hPa OSO 6.4mph /  10.3km/h 11mph /  17.7km/h 40% 0in /  0.0mm
14:34 67.3 °F /  19.6 °C 41.9 °F /  5.5 °C 30.2in /  1023.7hPa OSO 5.8mph /  9.4km/h 11.8mph /  19km/h 39.6% 0in /  0.0mm
14:39 67.3 °F /  19.6 °C 41.7 °F /  5.4 °C 30.2in /  1023.7hPa Oeste 5.4mph /  8.7km/h 12mph /  19.3km/h 39.5% 0in /  0.0mm
14:44 67.3 °F /  19.6 °C 41.5 °F /  5.3 °C 30.2in /  1023.6hPa Oeste 5.8mph /  9.4km/h 11mph /  17.7km/h 39% 0in /  0.0mm
14:49 67.3 °F /  19.6 °C 41.7 °F /  5.4 °C 30.2in /  1023.6hPa Oeste 6.2mph /  10km/h 10.4mph /  16.7km/h 39.4% 0in /  0.0mm
14:54 67.3 °F /  19.6 °C 41.9 °F /  5.5 °C 30.2in /  1023.6hPa OSO 5.8mph /  9.3km/h 8.1mph /  13km/h 39.7% 0in /  0.0mm
14:59 67.3 °F /  19.6 °C 41.5 °F /  5.3 °C 30.2in /  1023.4hPa SO 5.4mph /  8.7km/h 8.1mph /  13km/h 39% 0in /  0.0mm
15:04 67.5 °F /  19.7 °C 41.4 °F /  5.2 °C 30.2in /  1023.4hPa SO 4.7mph /  7.6km/h 11.5mph /  18.5km/h 38.4% 0in /  0.0mm
15:09 67.6 °F /  19.8 °C 41.4 °F /  5.2 °C 30.2in /  1023.4hPa OSO 4.3mph /  6.9km/h 12mph /  19.3km/h 38.1% 0in /  0.0mm
15:14 67.8 °F /  19.9 °C 41.4 °F /  5.2 °C 30.2in /  1023.0hPa OSO 4.8mph /  7.8km/h 9.2mph /  14.8km/h 38.1% 0in /  0.0mm
15:19 67.8 °F /  19.9 °C 41.5 °F /  5.3 °C 30.2in /  1023.0hPa SO 5.2mph /  8.4km/h 9.2mph /  14.8km/h 38.4% 0in /  0.0mm
15:24 68.2 °F /  20.1 °C 42.3 °F /  5.7 °C 30.2in /  1023.1hPa OSO 5.3mph /  8.5km/h 9.2mph /  14.8km/h 39% 0in /  0.0mm
15:29 68 °F /  20 °C 42.1 °F /  5.6 °C 30.2in /  1023.1hPa OSO 5.4mph /  8.7km/h 9.2mph /  14.8km/h 39.1% 0in /  0.0mm
15:34 67.8 °F /  19.9 °C 42.3 °F /  5.7 °C 30.2in /  1023.1hPa Oeste 4.8mph /  7.7km/h 9mph /  14.5km/h 39.4% 0in /  0.0mm
15:39 68 °F /  20 °C 42.8 °F /  6 °C 30.2in /  1023.1hPa SO 4.3mph /  6.9km/h 7.4mph /  11.9km/h 40.2% 0in /  0.0mm
15:44 68 °F /  20 °C 42.8 °F /  6 °C 30.2in /  1023.1hPa Oeste 3.9mph /  6.3km/h 7mph /  11.3km/h 40% 0in /  0.0mm
15:49 68.2 °F /  20.1 °C 42.8 °F /  6 °C 30.2in /  1023.1hPa Oeste 3.6mph /  5.8km/h 6mph /  9.7km/h 40% 0in /  0.0mm
15:54 68.4 °F /  20.2 °C 43 °F /  6.1 °C 30.2in /  1023.2hPa Oeste 2.9mph /  4.7km/h 5mph /  8km/h 40% 0in /  0.0mm
15:59 68.5 °F /  20.3 °C 43.3 °F /  6.3 °C 30.2in /  1023.2hPa Oeste 2.4mph /  3.9km/h 3.6mph /  5.8km/h 40.2% 0in /  0.0mm
16:04 68.7 °F /  20.4 °C 43.2 °F /  6.2 °C 30.2in /  1023.2hPa Oeste 1.8mph /  2.9km/h 4mph /  6.4km/h 39.7% 0in /  0.0mm
16:09 68.7 °F /  20.4 °C 43.3 °F /  6.3 °C 30.2in /  1023.2hPa Oeste 1.4mph /  2.2km/h 5.8mph /  9.3km/h 40% 0in /  0.0mm
16:14 68.5 °F /  20.3 °C 43.5 °F /  6.4 °C 30.2in /  1023.0hPa OSO 2mph /  3.2km/h 6mph /  9.7km/h 40.4% 0in /  0.0mm
16:19 68.5 °F /  20.3 °C 43.9 °F /  6.6 °C 30.2in /  1023.0hPa OSO 2.4mph /  3.9km/h 5mph /  8km/h 41% 0in /  0.0mm
16:24 68.5 °F /  20.3 °C 43.7 °F /  6.5 °C 30.2in /  1023.1hPa OSO 1.8mph /  2.9km/h 5mph /  8km/h 40.7% 0in /  0.0mm
16:29 68.5 °F /  20.3 °C 43.7 °F /  6.5 °C 30.2in /  1023.1hPa Oeste 1.4mph /  2.2km/h 5.4mph /  8.7km/h 40.6% 0in /  0.0mm
16:34 68.5 °F /  20.3 °C 43.7 °F /  6.5 °C 30.2in /  1023.1hPa ONO 2.2mph /  3.6km/h 6mph /  9.7km/h 40.7% 0in /  0.0mm
16:39 68.5 °F /  20.3 °C 43.3 °F /  6.3 °C 30.2in /  1023.1hPa Oeste 2.9mph /  4.6km/h 8.5mph /  13.7km/h 40.3% 0in /  0.0mm
16:44 68.4 °F /  20.2 °C 43 °F /  6.1 °C 30.2in /  1023.1hPa Oeste 3.3mph /  5.3km/h 9mph /  14.5km/h 39.9% 0in /  0.0mm
16:49 68.2 °F /  20.1 °C 42.4 °F /  5.8 °C 30.2in /  1023.1hPa Oeste 3.6mph /  5.8km/h 9.2mph /  14.8km/h 39.4% 0in /  0.0mm
16:54 68 °F /  20 °C 42.8 °F /  6 °C 30.2in /  1023.1hPa Oeste 4.2mph /  6.8km/h 9mph /  14.5km/h 40% 0in /  0.0mm
16:59 68 °F /  20 °C 42.8 °F /  6 °C 30.2in /  1023.0hPa Oeste 4.7mph /  7.6km/h 7.4mph /  11.9km/h 40% 0in /  0.0mm
17:04 67.8 °F /  19.9 °C 42.6 °F /  5.9 °C 30.2in /  1023.0hPa Oeste 4.5mph /  7.2km/h 8.1mph /  13km/h 40% 0in /  0.0mm
17:09 67.8 °F /  19.9 °C 42.4 °F /  5.8 °C 30.2in /  1023.1hPa Oeste 4.3mph /  6.9km/h 8.1mph /  13km/h 39.7% 0in /  0.0mm
17:14 67.8 °F /  19.9 °C 41.9 °F /  5.5 °C 30.2in /  1023.1hPa OSO 4.3mph /  6.9km/h 8.1mph /  13km/h 39.1% 0in /  0.0mm
17:19 67.8 °F /  19.9 °C 41.9 °F /  5.5 °C 30.2in /  1023.1hPa OSO 4.3mph /  6.9km/h 7mph /  11.3km/h 39% 0in /  0.0mm
17:24 67.6 °F /  19.8 °C 41.7 °F /  5.4 °C 30.2in /  1023.1hPa SO 4.3mph /  6.9km/h 8.1mph /  13km/h 39% 0in /  0.0mm
17:29 67.5 °F /  19.7 °C 41.4 °F /  5.2 °C 30.2in /  1023.0hPa SO 4.3mph /  6.9km/h 8.1mph /  13km/h 38.7% 0in /  0.0mm
17:34 67.5 °F /  19.7 °C 41 °F /  5 °C 30.2in /  1023.0hPa SO 4.5mph /  7.3km/h 8.1mph /  13km/h 38% 0in /  0.0mm
17:39 67.5 °F /  19.7 °C 40.8 °F /  4.9 °C 30.2in /  1023.2hPa OSO 4.7mph /  7.6km/h 7mph /  11.3km/h 38% 0in /  0.0mm
17:44 67.3 °F /  19.6 °C 40.8 °F /  4.9 °C 30.2in /  1023.2hPa OSO 4.1mph /  6.6km/h 6mph /  9.7km/h 38% 0in /  0.0mm
17:49 67.1 °F /  19.5 °C 40.6 °F /  4.8 °C 30.2in /  1023.2hPa Oeste 3.6mph /  5.8km/h 6mph /  9.7km/h 38% 0in /  0.0mm
17:54 66.9 °F /  19.4 °C 40.1 °F /  4.5 °C 30.2in /  1023.5hPa ONO 3.3mph /  5.3km/h 10.4mph /  16.7km/h 37.3% 0in /  0.0mm
17:59 66.9 °F /  19.4 °C 39.4 °F /  4.1 °C 30.2in /  1023.5hPa ONO 3.1mph /  5km/h 10mph /  16.1km/h 36.4% 0in /  0.0mm
18:04 66.9 °F /  19.4 °C 38.7 °F /  3.7 °C 30.2in /  1023.5hPa Oeste 4.5mph /  7.2km/h 9.7mph /  15.6km/h 35.3% 0in /  0.0mm
18:09 66.9 °F /  19.4 °C 37.6 °F /  3.1 °C 30.2in /  1023.5hPa Oeste 5.4mph /  8.7km/h 10.4mph /  16.7km/h 34.1% 0in /  0.0mm
18:14 66.9 °F /  19.4 °C 37.6 °F /  3.1 °C 30.2in /  1023.2hPa Oeste 6mph /  9.6km/h 10.4mph /  16.7km/h 33.9% 0in /  0.0mm
18:19 66.9 °F /  19.4 °C 36.9 °F /  2.7 °C 30.2in /  1023.2hPa Oeste 6.4mph /  10.3km/h 10mph /  16.1km/h 33.1% 0in /  0.0mm
18:24 66.9 °F /  19.4 °C 36.9 °F /  2.7 °C 30.2in /  1023.3hPa Oeste 5.7mph /  9.2km/h 10mph /  16.1km/h 33% 0in /  0.0mm
18:29 66.9 °F /  19.4 °C 36.5 °F /  2.5 °C 30.2in /  1023.3hPa ONO 5.2mph /  8.4km/h 10.4mph /  16.7km/h 32.4% 0in /  0.0mm
18:34 66.9 °F /  19.4 °C 36.1 °F /  2.3 °C 30.2in /  1023.3hPa ONO 5.2mph /  8.4km/h 9mph /  14.5km/h 32% 0in /  0.0mm
18:39 66.7 °F /  19.3 °C 36.5 °F /  2.5 °C 30.2in /  1023.6hPa NO 5.2mph /  8.4km/h 6mph /  9.7km/h 32.6% 0in /  0.0mm
18:44 66.4 °F /  19.1 °C 36.9 °F /  2.7 °C 30.2in /  1023.6hPa North 3.9mph /  6.3km/h 6.2mph /  10km/h 33.7% 0in /  0.0mm
18:49 65.7 °F /  18.7 °C 38.1 °F /  3.4 °C 30.2in /  1023.6hPa ENE 2.9mph /  4.7km/h 6.2mph /  10km/h 36.2% 0in /  0.0mm
18:54 64.8 °F /  18.2 °C 39 °F /  3.9 °C 30.2in /  1023.9hPa Este 3.7mph /  5.9km/h 6mph /  9.7km/h 38.5% 0in /  0.0mm
18:59 64.4 °F /  18 °C 37.9 °F /  3.3 °C 30.2in /  1023.9hPa Este 4.3mph /  6.9km/h 6mph /  9.7km/h 37.5% 0in /  0.0mm
19:04 64.6 °F /  18.1 °C 37.6 °F /  3.1 °C 30.2in /  1023.9hPa Este 3.6mph /  5.8km/h 5mph /  8km/h 36.7% 0in /  0.0mm
19:09 64.8 °F /  18.2 °C 36.3 °F /  2.4 °C 30.2in /  1024.1hPa NE 3.1mph /  5km/h 5mph /  8km/h 34.9% 0in /  0.0mm
19:14 64.9 °F /  18.3 °C 35.8 °F /  2.1 °C 30.2in /  1024.1hPa NO 3mph /  4.8km/h 5.2mph /  8.4km/h 34% 0in /  0.0mm
19:19 65.1 °F /  18.4 °C 35.2 °F /  1.8 °C 30.2in /  1024.1hPa ONO 2.9mph /  4.7km/h 7.4mph /  11.9km/h 33.1% 0in /  0.0mm
19:24 65.1 °F /  18.4 °C 35.2 °F /  1.8 °C 30.2in /  1024.2hPa ONO 3.7mph /  5.9km/h 8.5mph /  13.7km/h 33% 0in /  0.0mm
19:29 64.9 °F /  18.3 °C 35.8 °F /  2.1 °C 30.2in /  1024.2hPa Oeste 4.3mph /  6.9km/h 9mph /  14.5km/h 33.8% 0in /  0.0mm
19:34 64.8 °F /  18.2 °C 35.6 °F /  2 °C 30.2in /  1024.2hPa OSO 3.5mph /  5.6km/h 5mph /  8km/h 34% 0in /  0.0mm
19:39 64.6 °F /  18.1 °C 35.8 °F /  2.1 °C 30.3in /  1024.6hPa SSO 2.9mph /  4.7km/h 4.6mph /  7.4km/h 34.5% 0in /  0.0mm
19:44 64 °F /  17.8 °C 36.9 °F /  2.7 °C 30.3in /  1024.6hPa Este 2.4mph /  3.8km/h 6.4mph /  10.3km/h 36.5% 0in /  0.0mm
19:49 63.5 °F /  17.5 °C 36.5 °F /  2.5 °C 30.3in /  1024.6hPa ESE 2mph /  3.2km/h 7mph /  11.3km/h 36.7% 0in /  0.0mm
19:54 63.3 °F /  17.4 °C 36.3 °F /  2.4 °C 30.3in /  1024.8hPa SE 2.9mph /  4.7km/h 6mph /  9.7km/h 36.6% 0in /  0.0mm
19:59 63.7 °F /  17.6 °C 35.8 °F /  2.1 °C 30.3in /  1024.8hPa SO 3.6mph /  5.8km/h 10.2mph /  16.4km/h 35.2% 0in /  0.0mm
20:04 64.6 °F /  18.1 °C 36.3 °F /  2.4 °C 30.3in /  1024.8hPa SO 4.5mph /  7.3km/h 11.2mph /  18km/h 35.1% 0in /  0.0mm
20:09 64.6 °F /  18.1 °C 37 °F /  2.8 °C 30.3in /  1025.0hPa OSO 5.2mph /  8.4km/h 11.5mph /  18.5km/h 36% 0in /  0.0mm
20:14 64.6 °F /  18.1 °C 36.9 °F /  2.7 °C 30.3in /  1025.0hPa OSO 6.5mph /  10.4km/h 15mph /  24.1km/h 36% 0in /  0.0mm
20:19 64.6 °F /  18.1 °C 36.7 °F /  2.6 °C 30.3in /  1025.0hPa OSO 7.4mph /  11.9km/h 16.3mph /  26.2km/h 35.6% 0in /  0.0mm
20:24 64.8 °F /  18.2 °C 36.5 °F /  2.5 °C 30.3in /  1025.1hPa OSO 8.4mph /  13.6km/h 16mph /  25.7km/h 35% 0in /  0.0mm
20:29 64.8 °F /  18.2 °C 36.5 °F /  2.5 °C 30.3in /  1025.1hPa OSO 9.2mph /  14.8km/h 15mph /  24.1km/h 35% 0in /  0.0mm
20:34 64.8 °F /  18.2 °C 36 °F /  2.2 °C 30.3in /  1025.1hPa Oeste 8.2mph /  13.2km/h 14mph /  22.5km/h 34.3% 0in /  0.0mm
20:39 64.8 °F /  18.2 °C 35.8 °F /  2.1 °C 30.3in /  1025.5hPa Oeste 7.4mph /  11.9km/h 20.8mph /  33.5km/h 34% 0in /  0.0mm
20:44 64.9 °F /  18.3 °C 36 °F /  2.2 °C 30.3in /  1025.5hPa Oeste 8mph /  12.8km/h 21mph /  33.8km/h 34% 0in /  0.0mm
20:49 64.8 °F /  18.2 °C 35.8 °F /  2.1 °C 30.3in /  1025.5hPa Oeste 8.5mph /  13.7km/h 16mph /  25.7km/h 34.2% 0in /  0.0mm
20:54 64.4 °F /  18 °C 36.1 °F /  2.3 °C 30.3in /  1025.6hPa Oeste 8.9mph /  14.3km/h 17.3mph /  27.8km/h 35% 0in /  0.0mm
20:59 64.4 °F /  18 °C 36.1 °F /  2.3 °C 30.3in /  1025.6hPa Oeste 9.2mph /  14.8km/h 18.4mph /  29.6km/h 35% 0in /  0.0mm
21:04 64.2 °F /  17.9 °C 35.8 °F /  2.1 °C 30.3in /  1025.6hPa ONO 10.5mph /  16.9km/h 24.6mph /  39.6km/h 34.8% 0in /  0.0mm
21:09 64.2 °F /  17.9 °C 35.2 °F /  1.8 °C 30.3in /  1025.6hPa Oeste 11.4mph /  18.4km/h 25mph /  40.2km/h 34% 0in /  0.0mm
21:14 64.4 °F /  18 °C 35.2 °F /  1.8 °C 30.3in /  1025.4hPa Oeste 14.9mph /  24km/h 26.5mph /  42.6km/h 33.8% 0in /  0.0mm
21:19 64.2 °F /  17.9 °C 35.2 °F /  1.8 °C 30.3in /  1025.4hPa ONO 17.5mph /  28.2km/h 27.6mph /  44.4km/h 34% 0in /  0.0mm
21:24 64.2 °F /  17.9 °C 35.2 °F /  1.8 °C 30.3in /  1025.5hPa ONO 16.5mph /  26.5km/h 28mph /  45.1km/h 34.1% 0in /  0.0mm
21:29 64 °F /  17.8 °C 35.8 °F /  2.1 °C 30.3in /  1025.5hPa Oeste 15.6mph /  25.1km/h 23mph /  37km/h 35% 0in /  0.0mm
21:34 63.9 °F /  17.7 °C 36 °F /  2.2 °C 30.3in /  1025.5hPa ONO 13.2mph /  21.3km/h 23mph /  37km/h 35.5% 0in /  0.0mm
21:39 63.5 °F /  17.5 °C 36 °F /  2.2 °C 30.3in /  1025.8hPa Oeste 11.4mph /  18.4km/h 21mph /  33.8km/h 36% 0in /  0.0mm
21:44 63.1 °F /  17.3 °C 36.1 °F /  2.3 °C 30.3in /  1025.8hPa Oeste 10.5mph /  16.9km/h 17mph /  27.4km/h 36.7% 0in /  0.0mm
21:49 63 °F /  17.2 °C 36.5 °F /  2.5 °C 30.3in /  1025.8hPa Oeste 9.7mph /  15.6km/h 16.3mph /  26.2km/h 37.4% 0in /  0.0mm
21:54 62.6 °F /  17 °C 36.5 °F /  2.5 °C 30.3in /  1026.1hPa Oeste 9.1mph /  14.7km/h 21.3mph /  34.3km/h 38% 0in /  0.0mm
21:59 62.2 °F /  16.8 °C 36.9 °F /  2.7 °C 30.3in /  1026.1hPa OSO 8.7mph /  14km/h 21mph /  33.8km/h 38.6% 0in /  0.0mm
22:04 62.1 °F /  16.7 °C 37 °F /  2.8 °C 30.3in /  1026.1hPa OSO 8mph /  12.9km/h 14mph /  22.5km/h 39.4% 0in /  0.0mm
22:09 61.5 °F /  16.4 °C 37 °F /  2.8 °C 30.3in /  1026.1hPa OSO 7.6mph /  12.2km/h 13mph /  20.9km/h 40.1% 0in /  0.0mm
22:14 61.3 °F /  16.3 °C 37.6 °F /  3.1 °C 30.3in /  1025.8hPa OSO 7.6mph /  12.2km/h 13mph /  20.9km/h 41% 0in /  0.0mm
22:19 61.3 °F /  16.3 °C 37.8 °F /  3.2 °C 30.3in /  1025.8hPa OSO 7.6mph /  12.2km/h 12.5mph /  20.1km/h 41.5% 0in /  0.0mm
22:24 61.2 °F /  16.2 °C 38.3 °F /  3.5 °C 30.3in /  1026.2hPa OSO 6.8mph /  10.9km/h 13mph /  20.9km/h 42.6% 0in /  0.0mm
22:29 61.2 °F /  16.2 °C 38.5 °F /  3.6 °C 30.3in /  1026.2hPa Oeste 6.2mph /  10km/h 13.8mph /  22.2km/h 43.2% 0in /  0.0mm
22:34 61 °F /  16.1 °C 38.8 °F /  3.8 °C 30.3in /  1026.2hPa Oeste 6mph /  9.7km/h 14mph /  22.5km/h 44% 0in /  0.0mm
22:39 61 °F /  16.1 °C 39.2 °F /  4 °C 30.3in /  1026.2hPa Oeste 5.9mph /  9.5km/h 17.8mph /  28.6km/h 44.4% 0in /  0.0mm
22:44 61.2 °F /  16.2 °C 39.6 °F /  4.2 °C 30.3in /  1026.2hPa Oeste 7.4mph /  11.9km/h 18.4mph /  29.6km/h 45% 0in /  0.0mm
22:49 61 °F /  16.1 °C 39.6 °F /  4.2 °C 30.3in /  1026.2hPa Oeste 8.5mph /  13.7km/h 18.5mph /  29.8km/h 45% 0in /  0.0mm
22:54 61 °F /  16.1 °C 39.7 °F /  4.3 °C 30.3in /  1026.2hPa Oeste 9.4mph /  15.2km/h 19mph /  30.6km/h 45.5% 0in /  0.0mm
22:59 60.8 °F /  16 °C 39.9 °F /  4.4 °C 30.3in /  1026.0hPa Oeste 10.2mph /  16.4km/h 20.7mph /  33.3km/h 46% 0in /  0.0mm
23:04 60.8 °F /  16 °C 39.9 °F /  4.4 °C 30.3in /  1026.0hPa Oeste 10.8mph /  17.4km/h 21mph /  33.8km/h 46% 0in /  0.0mm
23:09 60.6 °F /  15.9 °C 39.7 °F /  4.3 °C 30.3in /  1026.0hPa Oeste 11.2mph /  18km/h 18mph /  29km/h 46% 0in /  0.0mm
23:14 60.4 °F /  15.8 °C 40.1 °F /  4.5 °C 30.3in /  1025.8hPa Oeste 10mph /  16.1km/h 20.7mph /  33.3km/h 47% 0in /  0.0mm
23:19 60.4 °F /  15.8 °C 40.1 °F /  4.5 °C 30.3in /  1025.8hPa Oeste 9.2mph /  14.8km/h 21mph /  33.8km/h 47% 0in /  0.0mm
23:24 60.3 °F /  15.7 °C 39.9 °F /  4.4 °C 30.3in /  1025.8hPa Oeste 10.4mph /  16.8km/h 21mph /  33.8km/h 47% 0in /  0.0mm
23:29 60.3 °F /  15.7 °C 40.5 °F /  4.7 °C 30.3in /  1025.7hPa Oeste 11.4mph /  18.4km/h 21.9mph /  35.2km/h 47.8% 0in /  0.0mm
23:34 60.1 °F /  15.6 °C 40.3 °F /  4.6 °C 30.3in /  1025.7hPa Oeste 11mph /  17.7km/h 22mph /  35.4km/h 48% 0in /  0.0mm
23:39 60.1 °F /  15.6 °C 40.3 °F /  4.6 °C 30.3in /  1025.7hPa Oeste 10.7mph /  17.2km/h 21mph /  33.8km/h 48% 0in /  0.0mm
23:44 60.1 °F /  15.6 °C 40.3 °F /  4.6 °C 30.3in /  1025.6hPa OSO 11mph /  17.7km/h 21.9mph /  35.2km/h 48% 0in /  0.0mm
23:49 60.1 °F /  15.6 °C 40.3 °F /  4.6 °C 30.3in /  1025.6hPa Oeste 11.2mph /  18km/h 22mph /  35.4km/h 48% 0in /  0.0mm
23:54 60.3 °F /  15.7 °C 40.5 °F /  4.7 °C 30.3in /  1025.8hPa Oeste 10.9mph /  17.6km/h 20mph /  32.2km/h 48% 0in /  0.0mm
23:59 60.3 °F /  15.7 °C 40.1 °F /  4.5 °C 30.3in /  1025.8hPa OSO 10.7mph /  17.2km/h 20mph /  32.2km/h 47.3% 0in /  0.0mm
Murcia-Puente Tocinos, España
Compliments of Weather Underground - 2.75 mb

La estación de MeteoMurcia.com, publica sus datos en los siguientes proyectos:

Weather Underground PWS IMURCIAP2 Meteoclimatic www.awekas.at

W3Counter
Web Analytics